createdAt,value
2022-11-12T00:00:10.441Z,12.00
2022-11-12T00:01:12.304Z,15.43
2022-11-12T00:02:15.267Z,18.10
2022-11-12T00:03:17.281Z,13.35
2022-11-12T00:04:18.958Z,14.02
2022-11-12T00:05:20.852Z,14.88
2022-11-12T00:06:22.686Z,18.17
2022-11-12T00:07:24.529Z,14.73
2022-11-12T00:08:26.480Z,13.98
2022-11-12T00:09:28.500Z,16.63
2022-11-12T00:10:35.548Z,14.07
2022-11-12T00:11:37.203Z,13.30
2022-11-12T00:12:41.863Z,14.57
2022-11-12T00:13:43.631Z,12.25
2022-11-12T00:14:46.587Z,13.95
2022-11-12T00:15:48.539Z,14.73
2022-11-12T00:16:50.327Z,13.80
2022-11-12T00:17:52.378Z,14.70
2022-11-12T00:18:54.048Z,17.00
2022-11-12T00:19:55.728Z,14.00
2022-11-12T00:20:59.392Z,12.60
2022-11-12T00:22:02.545Z,15.43
2022-11-12T00:23:04.636Z,14.60
2022-11-12T00:24:06.714Z,13.35
2022-11-12T00:25:10.391Z,15.85
2022-11-12T00:26:12.207Z,15.52
2022-11-12T00:27:14.396Z,14.38
2022-11-12T00:28:16.193Z,16.80
2022-11-12T00:29:18.016Z,15.60
2022-11-12T00:30:19.925Z,16.33
2022-11-12T00:31:21.584Z,12.50
2022-11-12T00:32:23.407Z,16.13
2022-11-12T00:33:25.166Z,14.68
2022-11-12T00:34:27.152Z,13.82
2022-11-12T00:35:29.190Z,14.48
2022-11-12T00:36:31.067Z,15.45
2022-11-12T00:37:32.830Z,14.88
2022-11-12T00:38:34.626Z,13.95
2022-11-12T00:39:36.396Z,14.05
2022-11-12T00:40:38.192Z,15.70
2022-11-12T00:41:40.039Z,10.88
2022-11-12T00:42:41.710Z,14.88
2022-11-12T00:43:43.330Z,14.27
2022-11-12T00:44:45.298Z,13.15
2022-11-12T00:45:46.935Z,13.68
2022-11-12T00:46:48.997Z,14.02
2022-11-12T00:47:56.531Z,15.38
2022-11-12T00:48:59.504Z,14.23
2022-11-12T00:50:01.221Z,12.90
2022-11-12T00:51:05.285Z,12.77
2022-11-12T00:52:07.148Z,18.08
2022-11-12T00:53:10.825Z,16.20
2022-11-12T00:54:12.709Z,15.18
2022-11-12T00:55:14.442Z,14.82
2022-11-12T00:56:17.008Z,12.93
2022-11-12T00:57:18.824Z,14.27
2022-11-12T00:58:20.706Z,14.00
2022-11-12T00:59:22.560Z,11.98
2022-11-12T01:00:24.269Z,12.15
2022-11-12T01:01:26.940Z,13.70
2022-11-12T01:02:28.646Z,12.55
2022-11-12T01:03:30.342Z,14.00
2022-11-12T01:04:32.209Z,12.70
2022-11-12T01:05:34.867Z,13.23
2022-11-12T01:06:40.222Z,14.13
2022-11-12T01:07:42.526Z,12.07
2022-11-12T01:08:45.969Z,11.73
2022-11-12T01:09:47.728Z,20.48
2022-11-12T01:10:49.576Z,17.75
2022-11-12T01:11:51.591Z,17.65
2022-11-12T01:12:54.337Z,14.13
2022-11-12T01:14:02.072Z,16.98
2022-11-12T01:15:06.037Z,18.65
2022-11-12T01:16:10.257Z,15.02
2022-11-12T01:17:11.913Z,15.65
2022-11-12T01:18:14.323Z,16.50
2022-11-12T01:19:16.250Z,14.95
2022-11-12T01:20:18.004Z,13.40
2022-11-12T01:21:19.830Z,15.80
2022-11-12T01:22:22.942Z,12.82
2022-11-12T01:23:24.726Z,12.68
2022-11-12T01:24:26.742Z,13.45
2022-11-12T01:25:28.375Z,12.93
2022-11-12T01:26:30.657Z,15.68
2022-11-12T01:27:33.858Z,13.30
2022-11-12T01:28:36.362Z,17.10
2022-11-12T01:29:38.109Z,14.25
2022-11-12T01:30:39.925Z,17.08
2022-11-12T01:31:41.915Z,18.05
2022-11-12T01:32:43.555Z,19.45
2022-11-12T01:33:47.734Z,13.13
2022-11-12T01:34:51.114Z,18.23
2022-11-12T01:35:52.766Z,13.20
2022-11-12T01:36:54.747Z,15.77
2022-11-12T01:37:56.562Z,13.38
2022-11-12T01:38:58.376Z,13.07
2022-11-12T01:40:00.263Z,13.15
2022-11-12T01:41:02.195Z,12.93
2022-11-12T01:42:04.258Z,12.90
2022-11-12T01:43:13.669Z,16.65
2022-11-12T01:44:21.327Z,17.92
2022-11-12T01:45:22.974Z,14.90
2022-11-12T01:46:32.120Z,13.35
2022-11-12T01:47:37.034Z,12.40
2022-11-12T01:48:45.907Z,15.00
2022-11-12T01:49:55.180Z,14.90
2022-11-12T01:51:01.509Z,11.95
2022-11-12T01:52:19.166Z,13.57
2022-11-12T01:53:25.280Z,14.35
2022-11-12T01:54:27.996Z,16.85
2022-11-12T01:55:34.940Z,15.55
2022-11-12T01:56:41.723Z,12.13
2022-11-12T01:57:51.725Z,11.98
2022-11-12T01:59:11.475Z,13.50
2022-11-12T02:00:14.042Z,14.00
2022-11-12T02:01:15.782Z,11.13
2022-11-12T02:02:17.891Z,13.60
2022-11-12T02:03:22.745Z,10.40
2022-11-12T02:04:27.383Z,13.15
2022-11-12T02:05:31.629Z,15.18
2022-11-12T02:06:35.923Z,12.77
2022-11-12T02:07:40.879Z,11.45
2022-11-12T02:08:44.041Z,14.38
2022-11-12T02:09:45.775Z,15.18
2022-11-12T02:10:47.442Z,10.40
2022-11-12T02:11:49.089Z,14.05
2022-11-12T02:13:11.545Z,14.93
2022-11-12T02:14:13.807Z,11.27
2022-11-12T02:15:15.701Z,13.38
2022-11-12T02:16:17.626Z,12.80
2022-11-12T02:17:19.430Z,14.90
2022-11-12T02:18:21.243Z,13.07
2022-11-12T02:19:23.032Z,17.48
2022-11-12T02:20:24.758Z,12.45
2022-11-12T02:21:27.953Z,12.95
2022-11-12T02:22:29.861Z,15.50
2022-11-12T02:23:32.414Z,11.85
2022-11-12T02:24:35.375Z,13.70
2022-11-12T02:26:40.095Z,16.10
2022-11-12T02:27:42.545Z,14.27
2022-11-12T02:28:44.373Z,14.15
2022-11-12T02:29:48.779Z,14.85
2022-11-12T02:30:50.426Z,12.27
2022-11-12T02:31:52.103Z,15.10
2022-11-12T02:32:53.756Z,12.73
2022-11-12T02:33:55.627Z,14.15
2022-11-12T02:34:57.281Z,12.65
2022-11-12T02:35:58.932Z,12.75
2022-11-12T02:37:00.713Z,11.02
2022-11-12T02:38:03.139Z,11.98
2022-11-12T02:39:05.767Z,11.68
2022-11-12T02:40:09.439Z,14.15
2022-11-12T02:41:11.092Z,10.18
2022-11-12T02:42:12.816Z,13.45
2022-11-12T02:43:16.155Z,9.85
2022-11-12T02:44:17.835Z,11.70
2022-11-12T02:45:20.038Z,11.82
2022-11-12T02:46:22.172Z,10.88
2022-11-12T02:47:23.772Z,12.30
2022-11-12T02:48:25.701Z,10.77
2022-11-12T02:49:27.829Z,9.95
2022-11-12T02:50:31.340Z,11.40
2022-11-12T02:51:33.165Z,11.38
2022-11-12T02:52:37.870Z,12.40
2022-11-12T02:53:39.533Z,10.45
2022-11-12T02:54:41.297Z,10.75
2022-11-12T02:55:44.038Z,10.43
2022-11-12T02:56:45.802Z,9.05
2022-11-12T02:57:48.388Z,13.93
2022-11-12T02:58:50.082Z,13.20
2022-11-12T02:59:51.876Z,11.35
2022-11-12T03:00:54.057Z,11.73
2022-11-12T03:01:55.762Z,12.13
2022-11-12T03:03:00.181Z,12.70
2022-11-12T03:04:01.860Z,9.38
2022-11-12T03:05:03.764Z,11.20
2022-11-12T03:06:08.800Z,10.05
2022-11-12T03:07:10.690Z,13.68
2022-11-12T03:08:12.728Z,13.80
2022-11-12T03:09:14.765Z,11.68
2022-11-12T03:10:16.833Z,11.60
2022-11-12T03:11:18.579Z,11.57
2022-11-12T03:12:20.228Z,12.05
2022-11-12T03:13:22.498Z,10.90
2022-11-12T03:14:24.371Z,9.80
2022-11-12T03:15:26.997Z,11.43
2022-11-12T03:16:28.769Z,10.82
2022-11-12T03:17:30.533Z,10.93
2022-11-12T03:18:34.111Z,11.95
2022-11-12T03:19:35.931Z,11.10
2022-11-12T03:20:37.804Z,11.32
2022-11-12T03:21:39.514Z,13.50
2022-11-12T03:22:43.119Z,11.55
2022-11-12T03:23:44.963Z,12.40
2022-11-12T03:24:46.607Z,10.88
2022-11-12T03:25:48.814Z,10.73
2022-11-12T03:26:50.828Z,12.52
2022-11-12T03:28:08.455Z,9.50
2022-11-12T03:29:10.115Z,11.57
2022-11-12T03:30:12.879Z,9.20
2022-11-12T03:31:16.693Z,10.48
2022-11-12T03:32:18.417Z,9.27
2022-11-12T03:33:20.082Z,11.65
2022-11-12T03:34:22.455Z,9.98
2022-11-12T03:35:24.278Z,11.20
2022-11-12T03:36:26.123Z,10.57
2022-11-12T03:37:27.888Z,9.57
2022-11-12T03:38:29.941Z,10.85
2022-11-12T03:39:35.033Z,12.40
2022-11-12T03:40:36.985Z,11.20
2022-11-12T03:41:38.800Z,8.75
2022-11-12T03:42:48.574Z,8.70
2022-11-12T03:43:50.232Z,10.07
2022-11-12T03:44:52.202Z,10.30
2022-11-12T03:45:53.892Z,10.30
2022-11-12T03:46:55.677Z,10.23
2022-11-12T03:47:58.768Z,10.02
2022-11-12T03:49:02.858Z,9.18
2022-11-12T03:50:06.851Z,8.32
2022-11-12T03:51:16.250Z,11.05
2022-11-12T03:52:17.914Z,10.02
2022-11-12T03:53:19.551Z,12.23
2022-11-12T03:54:21.233Z,10.90
2022-11-12T03:55:24.581Z,12.32
2022-11-12T03:56:26.691Z,13.02
2022-11-12T03:57:28.484Z,9.80
2022-11-12T03:58:31.246Z,9.50
2022-11-12T03:59:33.021Z,9.60
2022-11-12T04:00:34.800Z,9.30
2022-11-12T04:01:36.913Z,10.32
2022-11-12T04:02:38.813Z,9.40
2022-11-12T04:03:40.443Z,11.35
2022-11-12T04:05:06.418Z,9.23
2022-11-12T04:06:27.194Z,15.48
2022-11-12T04:07:47.587Z,7.80
2022-11-12T04:08:49.234Z,7.13
2022-11-12T04:09:50.882Z,9.35
2022-11-12T04:10:53.081Z,11.52
2022-11-12T04:11:54.647Z,11.60
2022-11-12T04:13:14.826Z,11.40
2022-11-12T04:14:16.517Z,11.07
2022-11-12T04:15:18.087Z,10.50
2022-11-12T04:16:41.012Z,11.07
2022-11-12T04:18:01.216Z,9.32
2022-11-12T04:19:23.863Z,9.45
2022-11-12T04:20:44.261Z,10.07
2022-11-12T04:21:52.067Z,9.52
2022-11-12T04:22:54.032Z,10.23
2022-11-12T04:23:57.024Z,7.63
2022-11-12T04:25:17.185Z,9.02
2022-11-12T04:26:25.132Z,10.38
2022-11-12T04:27:31.921Z,12.68
2022-11-12T04:28:33.679Z,8.25
2022-11-12T04:29:53.822Z,11.77
2022-11-12T04:30:55.397Z,11.15
2022-11-12T04:31:57.028Z,10.73
2022-11-12T04:32:59.591Z,9.25
2022-11-12T04:34:21.564Z,8.90
2022-11-12T04:35:25.262Z,9.57
2022-11-12T04:36:27.256Z,9.73
2022-11-12T04:37:44.684Z,9.73
2022-11-12T04:38:47.907Z,9.80
2022-11-12T04:39:49.849Z,8.27
2022-11-12T04:41:10.046Z,9.68
2022-11-12T04:42:30.963Z,10.32
2022-11-12T04:43:51.686Z,11.70
2022-11-12T04:45:05.519Z,9.05
2022-11-12T04:46:07.527Z,9.07
2022-11-12T04:47:09.150Z,8.70
2022-11-12T04:48:11.888Z,9.32
2022-11-12T04:49:16.463Z,9.45
2022-11-12T04:50:19.224Z,8.38
2022-11-12T04:51:39.794Z,10.10
2022-11-12T04:52:41.499Z,12.30
2022-11-12T04:53:43.303Z,8.07
2022-11-12T04:54:45.544Z,8.98
2022-11-12T04:55:53.429Z,8.77
2022-11-12T04:56:55.033Z,7.43
2022-11-12T04:58:00.590Z,9.23
2022-11-12T04:59:02.525Z,7.57
2022-11-12T05:00:07.095Z,8.25
2022-11-12T05:01:08.841Z,8.52
2022-11-12T05:02:10.561Z,7.28
2022-11-12T05:03:12.791Z,7.70
2022-11-12T05:04:14.680Z,10.20
2022-11-12T05:05:16.759Z,9.70
2022-11-12T05:06:37.127Z,38.08
2022-11-12T05:07:38.993Z,8.55
2022-11-12T05:08:41.220Z,9.75
2022-11-12T05:09:43.280Z,7.68
2022-11-12T05:10:44.964Z,8.35
2022-11-12T05:11:47.091Z,10.45
2022-11-12T05:12:48.887Z,8.35
2022-11-12T05:13:50.515Z,10.02
2022-11-12T05:14:52.294Z,10.73
2022-11-12T05:15:55.425Z,9.98
2022-11-12T05:16:57.072Z,9.98
2022-11-12T05:17:58.975Z,9.48
2022-11-12T05:19:00.781Z,10.35
2022-11-12T05:20:03.027Z,10.93
2022-11-12T05:21:24.991Z,8.20
2022-11-12T05:22:42.814Z,8.18
2022-11-12T05:23:48.090Z,8.60
2022-11-12T05:24:49.995Z,8.52
2022-11-12T05:25:51.897Z,9.68
2022-11-12T05:26:54.463Z,7.70
2022-11-12T05:27:56.154Z,9.02
2022-11-12T05:29:00.173Z,8.88
2022-11-12T05:30:02.096Z,7.32
2022-11-12T05:31:03.897Z,8.60
2022-11-12T05:32:08.897Z,7.03
2022-11-12T05:33:10.579Z,6.80
2022-11-12T05:34:13.080Z,7.07
2022-11-12T05:35:19.389Z,8.60
2022-11-12T05:36:23.102Z,7.72
2022-11-12T05:37:24.817Z,10.05
2022-11-12T05:38:26.869Z,9.68
2022-11-12T05:39:28.751Z,8.80
2022-11-12T05:40:30.447Z,8.65
2022-11-12T05:41:51.099Z,9.10
2022-11-12T05:42:54.438Z,8.75
2022-11-12T05:43:56.515Z,8.25
2022-11-12T05:44:58.343Z,8.70
2022-11-12T05:46:00.051Z,8.82
2022-11-12T05:47:01.807Z,8.18
2022-11-12T05:48:03.616Z,8.95
2022-11-12T05:49:05.708Z,10.55
2022-11-12T05:50:08.196Z,10.45
2022-11-12T05:51:13.357Z,7.88
2022-11-12T05:52:15.859Z,8.88
2022-11-12T05:53:17.669Z,11.73
2022-11-12T05:54:19.807Z,8.65
2022-11-12T05:55:21.587Z,8.65
2022-11-12T05:56:23.750Z,8.85
2022-11-12T05:57:27.862Z,10.45
2022-11-12T05:58:29.800Z,9.45
2022-11-12T05:59:31.543Z,8.63
2022-11-12T06:00:39.200Z,7.10
2022-11-12T06:01:46.929Z,8.13
2022-11-12T06:02:48.802Z,8.43
2022-11-12T06:03:50.643Z,8.40
2022-11-12T06:05:06.187Z,12.13
2022-11-12T06:06:08.240Z,7.75
2022-11-12T06:07:12.624Z,11.23
2022-11-12T06:08:14.423Z,13.15
2022-11-12T06:09:16.427Z,9.70
2022-11-12T06:10:20.628Z,6.93
2022-11-12T06:11:22.592Z,9.30
2022-11-12T06:12:24.342Z,10.88
2022-11-12T06:13:26.620Z,9.10
2022-11-12T06:14:28.349Z,9.82
2022-11-12T06:15:31.187Z,10.25
2022-11-12T06:16:35.601Z,10.80
2022-11-12T06:17:37.445Z,10.23
2022-11-12T06:18:39.201Z,10.23
2022-11-12T06:19:40.862Z,11.18
2022-11-12T06:20:42.651Z,8.70
2022-11-12T06:21:44.301Z,10.05
2022-11-12T06:22:46.188Z,10.00
2022-11-12T06:23:52.981Z,8.82
2022-11-12T06:24:56.228Z,8.27
2022-11-12T06:25:58.014Z,7.93
2022-11-12T06:26:59.683Z,9.40
2022-11-12T06:28:01.603Z,8.80
2022-11-12T06:29:03.204Z,13.15
2022-11-12T06:30:06.643Z,11.27
2022-11-12T06:31:08.515Z,9.05
2022-11-12T06:32:11.467Z,8.75
2022-11-12T06:33:13.273Z,8.55
2022-11-12T06:34:15.204Z,8.05
2022-11-12T06:35:18.351Z,8.85
2022-11-12T06:36:21.245Z,7.72
2022-11-12T06:37:23.146Z,9.73
2022-11-12T06:38:25.498Z,9.00
2022-11-12T06:39:27.919Z,10.15
2022-11-12T06:40:29.884Z,6.95
2022-11-12T06:41:31.760Z,10.10
2022-11-12T06:42:34.027Z,12.88
2022-11-12T06:43:36.629Z,10.75
2022-11-12T06:44:38.472Z,10.65
2022-11-12T06:45:41.406Z,9.63
2022-11-12T06:46:43.667Z,9.55
2022-11-12T06:47:46.031Z,8.75
2022-11-12T06:48:47.898Z,8.73
2022-11-12T06:49:49.822Z,9.07
2022-11-12T06:50:51.656Z,9.30
2022-11-12T06:51:55.452Z,9.35
2022-11-12T06:53:01.492Z,9.13
2022-11-12T06:54:03.407Z,9.30
2022-11-12T06:55:05.796Z,8.95
2022-11-12T06:56:08.779Z,7.90
2022-11-12T06:57:10.499Z,9.30
2022-11-12T06:58:12.549Z,9.93
2022-11-12T06:59:16.462Z,8.40
2022-11-12T07:00:18.572Z,10.00
2022-11-12T07:01:20.484Z,9.68
2022-11-12T07:02:22.572Z,9.30
2022-11-12T07:03:24.571Z,8.20
2022-11-12T07:04:26.453Z,9.00
2022-11-12T07:05:28.173Z,9.43
2022-11-12T07:06:42.229Z,18.30
2022-11-12T07:07:44.020Z,8.63
2022-11-12T07:08:46.974Z,9.25
2022-11-12T07:09:48.793Z,10.10
2022-11-12T07:10:55.242Z,11.25
2022-11-12T07:11:57.127Z,8.63
2022-11-12T07:12:59.183Z,9.85
2022-11-12T07:14:00.892Z,8.25
2022-11-12T07:15:02.689Z,8.50
2022-11-12T07:16:06.530Z,8.48
2022-11-12T07:17:08.340Z,9.25
2022-11-12T07:18:10.190Z,9.35
2022-11-12T07:19:12.074Z,9.73
2022-11-12T07:20:14.217Z,8.18
2022-11-12T07:21:18.522Z,8.95
2022-11-12T07:22:20.243Z,7.63
2022-11-12T07:23:22.175Z,7.93
2022-11-12T07:24:24.127Z,9.98
2022-11-12T07:25:25.841Z,9.10
2022-11-12T07:26:28.164Z,11.50
2022-11-12T07:27:31.062Z,11.63
2022-11-12T07:28:33.365Z,10.55
2022-11-12T07:29:47.391Z,9.45
2022-11-12T07:30:56.586Z,6.75
2022-11-12T07:31:58.366Z,9.35
2022-11-12T07:33:00.042Z,10.40
2022-11-12T07:34:02.064Z,10.45
2022-11-12T07:35:06.423Z,8.88
2022-11-12T07:36:13.076Z,11.32
2022-11-12T07:37:14.814Z,8.60
2022-11-12T07:38:16.503Z,9.32
2022-11-12T07:39:19.773Z,8.57
2022-11-12T07:40:22.128Z,9.38
2022-11-12T07:41:25.128Z,10.00
2022-11-12T07:42:26.866Z,8.60
2022-11-12T07:43:30.538Z,10.23
2022-11-12T07:44:34.470Z,8.80
2022-11-12T07:45:38.273Z,9.32
2022-11-12T07:46:40.352Z,8.85
2022-11-12T07:47:43.075Z,8.27
2022-11-12T07:48:46.484Z,8.20
2022-11-12T07:49:48.292Z,9.05
2022-11-12T07:50:50.118Z,7.55
2022-11-12T07:51:52.008Z,9.80
2022-11-12T07:52:53.844Z,8.75
2022-11-12T07:53:59.739Z,11.10
2022-11-12T07:55:01.938Z,9.10
2022-11-12T07:56:04.975Z,8.48
2022-11-12T07:57:06.853Z,8.90
2022-11-12T07:58:08.748Z,7.75
2022-11-12T07:59:10.492Z,12.13
2022-11-12T08:00:12.817Z,9.50
2022-11-12T08:01:28.757Z,10.30
2022-11-12T08:02:31.235Z,8.93
2022-11-12T08:03:33.123Z,9.93
2022-11-12T08:04:35.530Z,11.20
2022-11-12T08:05:54.358Z,10.70
2022-11-12T08:06:56.299Z,9.52
2022-11-12T08:07:58.404Z,9.43
2022-11-12T08:09:02.624Z,7.97
2022-11-12T08:10:04.788Z,11.27
2022-11-12T08:11:06.639Z,9.82
2022-11-12T08:12:08.300Z,9.95
2022-11-12T08:13:10.480Z,10.60
2022-11-12T08:14:12.163Z,13.63
2022-11-12T08:15:13.880Z,8.43
2022-11-12T08:16:16.089Z,12.00
2022-11-12T08:17:18.015Z,9.80
2022-11-12T08:18:19.716Z,13.25
2022-11-12T08:19:21.735Z,7.50
2022-11-12T08:20:25.744Z,9.10
2022-11-12T08:21:27.903Z,8.25
2022-11-12T08:22:31.288Z,10.50
2022-11-12T08:23:33.620Z,8.85
2022-11-12T08:24:35.384Z,11.77
2022-11-12T08:25:37.478Z,7.35
2022-11-12T08:26:39.220Z,9.30
2022-11-12T08:27:41.092Z,9.63
2022-11-12T08:28:43.258Z,8.43
2022-11-12T08:29:44.952Z,7.95
2022-11-12T08:30:46.670Z,7.65
2022-11-12T08:31:49.348Z,9.70
2022-11-12T08:33:02.737Z,10.57
2022-11-12T08:34:12.362Z,12.27
2022-11-12T08:35:20.196Z,7.70
2022-11-12T08:36:22.453Z,8.32
2022-11-12T08:37:24.651Z,8.82
2022-11-12T08:38:26.760Z,11.43
2022-11-12T08:39:28.694Z,9.90
2022-11-12T08:40:32.162Z,11.30
2022-11-12T08:41:34.204Z,8.95
2022-11-12T08:42:36.071Z,8.93
2022-11-12T08:43:39.390Z,8.98
2022-11-12T08:44:43.901Z,8.15
2022-11-12T08:45:45.870Z,10.80
2022-11-12T08:46:47.583Z,7.93
2022-11-12T08:47:49.516Z,9.38
2022-11-12T08:48:51.709Z,6.38
2022-11-12T08:49:53.446Z,10.27
2022-11-12T08:50:55.354Z,10.18
2022-11-12T08:51:57.843Z,10.10
2022-11-12T08:53:02.022Z,5.65
2022-11-12T08:54:04.016Z,8.00
2022-11-12T08:55:06.467Z,8.43
2022-11-12T08:56:08.206Z,8.48
2022-11-12T08:57:11.436Z,8.90
2022-11-12T08:58:16.084Z,9.32
2022-11-12T08:59:17.781Z,9.95
2022-11-12T09:00:19.717Z,8.70
2022-11-12T09:01:21.627Z,8.75
2022-11-12T09:02:23.628Z,9.15
2022-11-12T09:03:26.800Z,8.43
2022-11-12T09:04:28.717Z,9.02
2022-11-12T09:05:30.836Z,7.88
2022-11-12T09:06:32.471Z,7.43
2022-11-12T09:07:49.435Z,7.72
2022-11-12T09:08:52.646Z,10.00
2022-11-12T09:09:54.777Z,10.48
2022-11-12T09:10:59.063Z,8.18
2022-11-12T09:12:08.234Z,9.80
2022-11-12T09:13:15.019Z,9.63
2022-11-12T09:14:16.919Z,9.40
2022-11-12T09:16:42.342Z,7.88
2022-11-12T09:17:44.341Z,12.60
2022-11-12T09:18:46.250Z,9.10
2022-11-12T09:19:47.936Z,8.85
2022-11-12T09:20:49.844Z,8.40
2022-11-12T09:21:51.707Z,8.80
2022-11-12T09:22:53.563Z,8.85
2022-11-12T09:23:55.657Z,8.75
2022-11-12T09:24:57.583Z,9.45
2022-11-12T09:25:59.422Z,9.13
2022-11-12T09:27:01.462Z,7.85
2022-11-12T09:28:12.767Z,11.05
2022-11-12T09:29:14.754Z,8.48
2022-11-12T09:30:17.155Z,10.27
2022-11-12T09:31:18.984Z,10.18
2022-11-12T09:32:21.127Z,9.68
2022-11-12T09:33:25.965Z,10.18
2022-11-12T09:34:27.795Z,11.73
2022-11-12T09:35:32.694Z,10.10
2022-11-12T09:36:39.556Z,10.30
2022-11-12T09:37:41.658Z,11.35
2022-11-12T09:38:43.555Z,9.93
2022-11-12T09:39:45.932Z,12.38
2022-11-12T09:40:53.490Z,13.85
2022-11-12T09:42:00.719Z,11.93
2022-11-12T09:43:29.073Z,9.02
2022-11-12T09:44:36.905Z,11.35
2022-11-12T09:45:40.563Z,8.68
2022-11-12T09:46:54.700Z,9.48
2022-11-12T09:48:08.895Z,7.15
2022-11-12T09:49:22.976Z,8.60
2022-11-12T09:50:36.353Z,6.95
2022-11-12T09:51:49.821Z,9.43
2022-11-12T09:53:00.684Z,6.28
2022-11-12T09:54:13.723Z,8.93
2022-11-12T09:55:22.612Z,8.68
2022-11-12T09:56:26.183Z,7.60
2022-11-12T09:57:27.932Z,13.02
2022-11-12T09:58:29.903Z,10.85
2022-11-12T09:59:37.585Z,8.98
2022-11-12T10:00:45.211Z,8.07
2022-11-12T10:01:57.236Z,9.27
2022-11-12T10:03:01.922Z,9.25
2022-11-12T10:04:38.635Z,11.45
2022-11-12T10:05:54.789Z,7.93
2022-11-12T10:07:15.446Z,8.18
2022-11-12T10:08:39.792Z,7.43
2022-11-12T10:10:01.491Z,7.65
2022-11-12T10:11:26.190Z,7.28
2022-11-12T10:12:53.577Z,7.47
2022-11-12T10:14:04.085Z,10.98
2022-11-12T10:15:33.753Z,8.27
2022-11-12T10:17:13.544Z,8.55
2022-11-12T10:18:36.302Z,9.43
2022-11-12T10:20:16.286Z,9.95
2022-11-12T10:21:29.806Z,8.23
2022-11-12T10:22:37.538Z,10.05
2022-11-12T10:23:45.640Z,10.15
2022-11-12T10:24:48.847Z,8.77
2022-11-12T10:25:52.941Z,10.00
2022-11-12T10:26:57.653Z,8.02
2022-11-12T10:28:01.751Z,9.57
2022-11-12T10:29:11.906Z,9.40
2022-11-12T10:30:22.135Z,8.20
2022-11-12T10:31:23.884Z,10.98
2022-11-12T10:32:25.630Z,8.43
2022-11-12T10:33:31.987Z,8.35
2022-11-12T10:34:35.883Z,8.30
2022-11-12T10:35:37.615Z,7.97
2022-11-12T10:36:42.344Z,8.50
2022-11-12T10:37:55.899Z,8.30
2022-11-12T10:38:58.466Z,11.52
2022-11-12T10:40:00.139Z,10.13
2022-11-12T10:41:19.645Z,10.40
2022-11-12T10:42:23.249Z,7.85
2022-11-12T10:43:25.603Z,7.72
2022-11-12T10:44:27.864Z,9.52
2022-11-12T10:45:30.345Z,8.70
2022-11-12T10:46:37.711Z,8.57
2022-11-12T10:47:42.884Z,9.75
2022-11-12T10:49:04.070Z,11.40
2022-11-12T10:50:08.846Z,7.88
2022-11-12T10:51:38.711Z,10.48
2022-11-12T10:52:52.380Z,8.98
2022-11-12T10:53:54.405Z,8.25
2022-11-12T10:55:25.597Z,9.25
2022-11-12T10:56:29.124Z,8.43
2022-11-12T10:57:30.926Z,9.63
2022-11-12T10:58:32.656Z,7.30
2022-11-12T10:59:34.314Z,8.25
2022-11-12T11:00:37.648Z,9.27
2022-11-12T11:01:45.308Z,8.82
2022-11-12T11:02:56.958Z,7.75
2022-11-12T11:03:59.136Z,8.43
2022-11-12T11:05:01.074Z,10.77
2022-11-12T11:06:18.416Z,9.25
2022-11-12T11:07:25.656Z,8.60
2022-11-12T11:08:36.912Z,7.13
2022-11-12T11:09:55.560Z,8.20
2022-11-12T11:11:27.131Z,8.30
2022-11-12T11:12:30.630Z,8.68
2022-11-12T11:13:32.467Z,6.88
2022-11-12T11:14:36.892Z,7.75
2022-11-12T11:15:38.984Z,8.90
2022-11-12T11:17:02.342Z,6.03
2022-11-12T11:18:04.225Z,7.75
2022-11-12T11:19:06.675Z,8.27
2022-11-12T11:20:25.488Z,8.32
2022-11-12T11:21:49.702Z,9.00
2022-11-12T11:23:03.951Z,8.52
2022-11-12T11:24:33.795Z,7.25
2022-11-12T11:25:36.764Z,7.13
2022-11-12T11:27:00.697Z,7.85
2022-11-12T11:28:25.823Z,8.30
2022-11-12T11:29:30.834Z,8.65
2022-11-12T11:30:33.305Z,5.40
2022-11-12T11:31:46.860Z,8.55
2022-11-12T11:32:54.548Z,8.95
2022-11-12T11:34:15.877Z,9.15
2022-11-12T11:35:29.452Z,8.18
2022-11-12T11:36:39.151Z,9.63
2022-11-12T11:38:00.105Z,9.25
2022-11-12T11:39:14.767Z,8.63
2022-11-12T11:40:56.295Z,7.20
2022-11-12T11:42:20.187Z,12.73
2022-11-12T11:43:25.032Z,9.00
2022-11-12T11:44:38.751Z,10.93
2022-11-12T11:45:52.999Z,8.55
2022-11-12T11:47:03.039Z,8.65
2022-11-12T11:48:30.167Z,8.93
2022-11-12T11:49:53.772Z,8.30
2022-11-12T11:51:05.945Z,7.82
2022-11-12T11:52:42.813Z,6.93
2022-11-12T11:53:54.189Z,8.15
2022-11-12T11:55:09.435Z,7.93
2022-11-12T11:56:32.065Z,5.65
2022-11-12T11:57:57.349Z,8.95
2022-11-12T11:59:20.785Z,8.30
2022-11-12T12:00:25.682Z,9.02
2022-11-12T12:01:29.611Z,8.60
2022-11-12T12:02:53.595Z,7.25
2022-11-12T12:04:12.384Z,6.15
2022-11-12T12:05:22.771Z,7.25
2022-11-12T12:06:29.981Z,6.75
2022-11-12T12:07:57.370Z,9.13
2022-11-12T12:09:20.836Z,8.02
2022-11-12T12:10:53.245Z,8.65
2022-11-12T12:12:09.701Z,8.18
2022-11-12T12:13:17.132Z,6.15
2022-11-12T12:15:06.425Z,8.23
2022-11-12T12:16:29.177Z,5.88
2022-11-12T12:18:13.079Z,5.57
2022-11-12T12:19:35.291Z,8.48
2022-11-12T12:21:22.043Z,7.93
2022-11-12T12:22:41.896Z,8.15
2022-11-12T12:24:00.637Z,7.35
2022-11-12T12:25:17.496Z,6.38
2022-11-12T12:26:31.294Z,7.15
2022-11-12T12:27:37.340Z,7.22
2022-11-12T12:28:50.335Z,9.57
2022-11-12T12:29:58.698Z,8.00
2022-11-12T12:31:07.636Z,10.40
2022-11-12T12:32:35.803Z,9.18
2022-11-12T12:33:58.932Z,9.18
2022-11-12T12:35:03.555Z,6.75
2022-11-12T12:36:25.030Z,7.85
2022-11-12T12:37:34.715Z,7.95
2022-11-12T12:38:51.597Z,5.75
2022-11-12T12:40:03.798Z,7.80
2022-11-12T12:41:17.738Z,6.43
2022-11-12T12:42:29.227Z,6.10
2022-11-12T12:43:40.539Z,8.23
2022-11-12T12:45:00.716Z,9.57
2022-11-12T12:46:03.986Z,7.95
2022-11-12T12:47:10.858Z,6.35
2022-11-12T12:48:26.292Z,8.25
2022-11-12T12:49:34.403Z,6.53
2022-11-12T12:50:40.305Z,6.15
2022-11-12T12:51:42.235Z,7.75
2022-11-12T12:53:25.064Z,8.35
2022-11-12T12:54:36.228Z,6.88
2022-11-12T12:55:42.576Z,6.85
2022-11-12T12:56:47.205Z,7.47
2022-11-12T12:57:49.132Z,7.22
2022-11-12T12:58:51.552Z,6.40
2022-11-12T13:00:31.904Z,6.05
2022-11-12T13:01:36.606Z,7.20
2022-11-12T13:02:39.059Z,6.68
2022-11-12T13:03:45.990Z,6.82
2022-11-12T13:04:56.570Z,5.47
2022-11-12T13:06:21.256Z,8.07
2022-11-12T13:07:41.896Z,5.65
2022-11-12T13:08:44.379Z,9.32
2022-11-12T13:09:46.057Z,9.20
2022-11-12T13:10:49.328Z,7.63
2022-11-12T13:12:05.909Z,7.03
2022-11-12T13:13:19.690Z,7.20
2022-11-12T13:14:36.658Z,5.78
2022-11-12T13:15:46.281Z,7.07
2022-11-12T13:16:51.137Z,7.65
2022-11-12T13:17:52.996Z,7.93
2022-11-12T13:18:54.641Z,7.75
2022-11-12T13:19:59.394Z,6.68
2022-11-12T13:21:13.009Z,7.43
2022-11-12T13:22:17.660Z,6.57
2022-11-12T13:24:03.702Z,8.18
2022-11-12T13:25:08.733Z,7.00
2022-11-12T13:26:42.152Z,7.97
2022-11-12T13:27:44.164Z,7.65
2022-11-12T13:29:25.392Z,6.45
2022-11-12T13:30:27.218Z,5.35
2022-11-12T13:31:30.013Z,4.88
2022-11-12T13:32:47.401Z,6.68
2022-11-12T13:33:49.719Z,7.07
2022-11-12T13:34:51.684Z,6.05
2022-11-12T13:36:26.898Z,6.53
2022-11-12T13:37:28.693Z,8.75
2022-11-12T13:38:38.090Z,7.45
2022-11-12T13:39:41.422Z,5.97
2022-11-12T13:40:55.223Z,5.35
2022-11-12T13:42:20.148Z,5.22
2022-11-12T13:43:36.189Z,6.07
2022-11-12T13:44:38.246Z,9.52
2022-11-12T13:45:47.104Z,8.77
2022-11-12T13:46:51.807Z,6.50
2022-11-12T13:47:53.954Z,6.40
2022-11-12T13:48:59.740Z,7.68
2022-11-12T13:50:02.014Z,5.72
2022-11-12T13:51:07.711Z,9.02
2022-11-12T13:52:13.215Z,6.30
2022-11-12T13:53:22.613Z,6.63
2022-11-12T13:54:37.704Z,7.70
2022-11-12T13:55:50.516Z,7.32
2022-11-12T13:56:52.500Z,8.02
2022-11-12T13:57:55.272Z,6.95
2022-11-12T13:59:18.899Z,5.28
2022-11-12T14:00:25.083Z,6.90
2022-11-12T14:01:34.181Z,6.40
2022-11-12T14:02:41.541Z,7.43
2022-11-12T14:03:46.562Z,7.38
2022-11-12T14:04:48.797Z,8.40
2022-11-12T14:05:51.333Z,7.53
2022-11-12T14:07:32.126Z,7.03
2022-11-12T14:09:05.871Z,7.53
2022-11-12T14:10:54.731Z,6.32
2022-11-12T14:12:24.166Z,5.20
2022-11-12T14:13:34.920Z,4.97
2022-11-12T14:14:39.641Z,5.47
2022-11-12T14:15:54.319Z,6.30
2022-11-12T14:17:04.120Z,5.57
2022-11-12T14:18:32.735Z,5.90
2022-11-12T14:19:52.667Z,6.72
2022-11-12T14:20:55.408Z,6.30
2022-11-12T14:22:10.364Z,6.30
2022-11-12T14:23:21.497Z,7.60
2022-11-12T14:24:26.166Z,6.68
2022-11-12T14:25:28.890Z,8.50
2022-11-12T14:26:42.581Z,9.10
2022-11-12T14:27:44.716Z,7.20
2022-11-12T14:28:46.510Z,9.10
2022-11-12T14:29:48.849Z,5.97
2022-11-12T14:30:50.617Z,9.00
2022-11-12T14:32:03.130Z,9.10
2022-11-12T14:33:10.118Z,6.07
2022-11-12T14:34:34.036Z,9.30
2022-11-12T14:35:40.319Z,7.35